sensor_id;sensor_type;location;lat;lon;timestamp;P1;durP1;ratioP1;P2;durP2;ratioP2
77524;SDS011;66638;50.050;21.124;2023-08-24T00:01:06;15.50;;;9.30;;
77524;SDS011;66638;50.050;21.124;2023-08-24T00:03:56;11.20;;;8.90;;
77524;SDS011;66638;50.050;21.124;2023-08-24T00:06:43;11.70;;;9.90;;
77524;SDS011;66638;50.050;21.124;2023-08-24T00:09:30;11.50;;;10.00;;
77524;SDS011;66638;50.050;21.124;2023-08-24T00:12:17;13.50;;;9.60;;
77524;SDS011;66638;50.050;21.124;2023-08-24T00:15:07;12.90;;;8.60;;
77524;SDS011;66638;50.050;21.124;2023-08-24T00:17:57;11.00;;;8.20;;
77524;SDS011;66638;50.050;21.124;2023-08-24T00:20:44;12.30;;;9.00;;
77524;SDS011;66638;50.050;21.124;2023-08-24T00:23:31;10.10;;;8.70;;
77524;SDS011;66638;50.050;21.124;2023-08-24T00:26:19;14.40;;;9.20;;
77524;SDS011;66638;50.050;21.124;2023-08-24T00:29:06;10.60;;;8.10;;
77524;SDS011;66638;50.050;21.124;2023-08-24T00:31:53;10.50;;;8.60;;
77524;SDS011;66638;50.050;21.124;2023-08-24T00:34:41;10.00;;;8.40;;
77524;SDS011;66638;50.050;21.124;2023-08-24T00:37:28;13.90;;;10.40;;
77524;SDS011;66638;50.050;21.124;2023-08-24T00:40:16;13.00;;;9.10;;
77524;SDS011;66638;50.050;21.124;2023-08-24T00:43:05;13.60;;;9.50;;
77524;SDS011;66638;50.050;21.124;2023-08-24T00:45:53;13.10;;;9.60;;
77524;SDS011;66638;50.050;21.124;2023-08-24T00:48:42;13.20;;;10.40;;
77524;SDS011;66638;50.050;21.124;2023-08-24T00:51:32;15.40;;;10.60;;
77524;SDS011;66638;50.050;21.124;2023-08-24T00:54:19;16.90;;;11.40;;
77524;SDS011;66638;50.050;21.124;2023-08-24T00:57:06;11.40;;;9.20;;
77524;SDS011;66638;50.050;21.124;2023-08-24T00:59:54;11.70;;;9.50;;
77524;SDS011;66638;50.050;21.124;2023-08-24T01:02:42;11.70;;;9.60;;
77524;SDS011;66638;50.050;21.124;2023-08-24T01:08:16;12.30;;;8.50;;
77524;SDS011;66638;50.050;21.124;2023-08-24T01:11:07;9.70;;;8.10;;
77524;SDS011;66638;50.050;21.124;2023-08-24T01:14:00;10.00;;;8.00;;
77524;SDS011;66638;50.050;21.124;2023-08-24T01:16:56;9.70;;;8.60;;
77524;SDS011;66638;50.050;21.124;2023-08-24T01:19:45;11.30;;;9.00;;
77524;SDS011;66638;50.050;21.124;2023-08-24T01:22:34;10.40;;;8.30;;
77524;SDS011;66638;50.050;21.124;2023-08-24T01:25:37;11.60;;;8.40;;
77524;SDS011;66638;50.050;21.124;2023-08-24T01:28:26;10.50;;;8.40;;
77524;SDS011;66638;50.050;21.124;2023-08-24T01:31:14;9.70;;;8.70;;
77524;SDS011;66638;50.050;21.124;2023-08-24T01:34:02;10.40;;;9.10;;
77524;SDS011;66638;50.050;21.124;2023-08-24T01:36:49;11.00;;;9.20;;
77524;SDS011;66638;50.050;21.124;2023-08-24T01:39:42;10.80;;;8.80;;
77524;SDS011;66638;50.050;21.124;2023-08-24T01:45:27;12.10;;;8.60;;
77524;SDS011;66638;50.050;21.124;2023-08-24T01:48:16;10.70;;;9.10;;
77524;SDS011;66638;50.050;21.124;2023-08-24T01:51:03;11.90;;;9.10;;
77524;SDS011;66638;50.050;21.124;2023-08-24T01:53:51;14.50;;;9.80;;
77524;SDS011;66638;50.050;21.124;2023-08-24T01:56:39;12.40;;;8.50;;
77524;SDS011;66638;50.050;21.124;2023-08-24T02:02:13;11.40;;;9.10;;
77524;SDS011;66638;50.050;21.124;2023-08-24T02:05:00;11.20;;;8.80;;
77524;SDS011;66638;50.050;21.124;2023-08-24T02:07:49;12.30;;;9.60;;
77524;SDS011;66638;50.050;21.124;2023-08-24T02:10:36;11.50;;;8.70;;
77524;SDS011;66638;50.050;21.124;2023-08-24T02:13:24;13.80;;;8.70;;
77524;SDS011;66638;50.050;21.124;2023-08-24T02:16:11;10.80;;;8.60;;
77524;SDS011;66638;50.050;21.124;2023-08-24T02:18:59;14.30;;;9.10;;
77524;SDS011;66638;50.050;21.124;2023-08-24T02:21:46;11.90;;;8.60;;
77524;SDS011;66638;50.050;21.124;2023-08-24T02:24:33;11.60;;;8.90;;
77524;SDS011;66638;50.050;21.124;2023-08-24T02:27:20;11.60;;;9.40;;
77524;SDS011;66638;50.050;21.124;2023-08-24T02:30:07;9.00;;;7.50;;
77524;SDS011;66638;50.050;21.124;2023-08-24T02:32:55;9.10;;;7.80;;
77524;SDS011;66638;50.050;21.124;2023-08-24T02:35:42;8.90;;;7.70;;
77524;SDS011;66638;50.050;21.124;2023-08-24T02:38:32;13.00;;;9.50;;
77524;SDS011;66638;50.050;21.124;2023-08-24T02:41:20;9.90;;;8.90;;
77524;SDS011;66638;50.050;21.124;2023-08-24T02:44:07;10.60;;;8.30;;
77524;SDS011;66638;50.050;21.124;2023-08-24T02:46:54;11.30;;;8.60;;
77524;SDS011;66638;50.050;21.124;2023-08-24T02:49:42;10.00;;;7.40;;
77524;SDS011;66638;50.050;21.124;2023-08-24T02:52:29;13.60;;;8.50;;
77524;SDS011;66638;50.050;21.124;2023-08-24T02:55:17;10.80;;;7.70;;
77524;SDS011;66638;50.050;21.124;2023-08-24T02:58:05;10.80;;;8.20;;
77524;SDS011;66638;50.050;21.124;2023-08-24T03:00:52;10.10;;;7.70;;
77524;SDS011;66638;50.050;21.124;2023-08-24T03:03:39;10.00;;;8.10;;
77524;SDS011;66638;50.050;21.124;2023-08-24T03:06:26;10.20;;;7.70;;
77524;SDS011;66638;50.050;21.124;2023-08-24T03:09:14;9.50;;;7.20;;
77524;SDS011;66638;50.050;21.124;2023-08-24T03:12:02;9.30;;;7.20;;
77524;SDS011;66638;50.050;21.124;2023-08-24T03:14:53;9.30;;;7.50;;
77524;SDS011;66638;50.050;21.124;2023-08-24T03:17:42;9.60;;;7.40;;
77524;SDS011;66638;50.050;21.124;2023-08-24T03:20:30;8.70;;;7.00;;
77524;SDS011;66638;50.050;21.124;2023-08-24T03:23:17;10.30;;;8.80;;
77524;SDS011;66638;50.050;21.124;2023-08-24T03:26:04;9.80;;;7.70;;
77524;SDS011;66638;50.050;21.124;2023-08-24T03:28:53;9.10;;;7.90;;
77524;SDS011;66638;50.050;21.124;2023-08-24T03:31:40;10.10;;;8.00;;
77524;SDS011;66638;50.050;21.124;2023-08-24T03:34:27;12.20;;;7.70;;
77524;SDS011;66638;50.050;21.124;2023-08-24T03:37:17;12.80;;;8.30;;
77524;SDS011;66638;50.050;21.124;2023-08-24T03:40:04;11.60;;;8.40;;
77524;SDS011;66638;50.050;21.124;2023-08-24T03:42:53;14.70;;;9.60;;
77524;SDS011;66638;50.050;21.124;2023-08-24T03:45:41;9.50;;;8.50;;
77524;SDS011;66638;50.050;21.124;2023-08-24T03:48:31;11.10;;;7.60;;
77524;SDS011;66638;50.050;21.124;2023-08-24T03:51:18;9.30;;;7.60;;
77524;SDS011;66638;50.050;21.124;2023-08-24T03:54:06;8.40;;;7.50;;
77524;SDS011;66638;50.050;21.124;2023-08-24T03:56:53;9.10;;;7.30;;
77524;SDS011;66638;50.050;21.124;2023-08-24T03:59:41;11.50;;;7.90;;
77524;SDS011;66638;50.050;21.124;2023-08-24T04:02:29;10.40;;;8.70;;
77524;SDS011;66638;50.050;21.124;2023-08-24T04:05:16;13.20;;;8.70;;
77524;SDS011;66638;50.050;21.124;2023-08-24T04:08:04;11.20;;;9.50;;
77524;SDS011;66638;50.050;21.124;2023-08-24T04:10:51;11.00;;;8.30;;
77524;SDS011;66638;50.050;21.124;2023-08-24T04:16:25;10.50;;;8.40;;
77524;SDS011;66638;50.050;21.124;2023-08-24T04:21:59;13.10;;;8.20;;
77524;SDS011;66638;50.050;21.124;2023-08-24T04:24:46;12.60;;;7.90;;
77524;SDS011;66638;50.050;21.124;2023-08-24T04:27:33;11.60;;;8.00;;
77524;SDS011;66638;50.050;21.124;2023-08-24T04:30:20;11.00;;;8.30;;
77524;SDS011;66638;50.050;21.124;2023-08-24T04:33:08;10.10;;;8.00;;
77524;SDS011;66638;50.050;21.124;2023-08-24T04:35:55;9.90;;;7.70;;
77524;SDS011;66638;50.050;21.124;2023-08-24T04:38:43;9.80;;;7.80;;
77524;SDS011;66638;50.050;21.124;2023-08-24T04:41:30;10.80;;;7.90;;
77524;SDS011;66638;50.050;21.124;2023-08-24T04:44:18;9.60;;;7.60;;
77524;SDS011;66638;50.050;21.124;2023-08-24T04:47:06;9.20;;;7.90;;
77524;SDS011;66638;50.050;21.124;2023-08-24T04:49:54;10.80;;;8.00;;
77524;SDS011;66638;50.050;21.124;2023-08-24T04:52:41;8.90;;;7.70;;
77524;SDS011;66638;50.050;21.124;2023-08-24T04:55:28;9.90;;;7.60;;
77524;SDS011;66638;50.050;21.124;2023-08-24T04:58:15;13.30;;;8.80;;
77524;SDS011;66638;50.050;21.124;2023-08-24T05:01:03;10.00;;;8.40;;
77524;SDS011;66638;50.050;21.124;2023-08-24T05:03:51;10.10;;;8.00;;
77524;SDS011;66638;50.050;21.124;2023-08-24T05:06:39;8.80;;;7.40;;
77524;SDS011;66638;50.050;21.124;2023-08-24T05:09:26;11.70;;;7.90;;
77524;SDS011;66638;50.050;21.124;2023-08-24T05:12:13;8.90;;;8.00;;
77524;SDS011;66638;50.050;21.124;2023-08-24T05:15:01;9.30;;;8.40;;
77524;SDS011;66638;50.050;21.124;2023-08-24T05:17:49;10.00;;;8.00;;
77524;SDS011;66638;50.050;21.124;2023-08-24T05:20:40;9.80;;;8.80;;
77524;SDS011;66638;50.050;21.124;2023-08-24T05:23:27;8.90;;;7.50;;
77524;SDS011;66638;50.050;21.124;2023-08-24T05:26:14;9.00;;;8.10;;
77524;SDS011;66638;50.050;21.124;2023-08-24T05:29:09;11.60;;;8.70;;
77524;SDS011;66638;50.050;21.124;2023-08-24T05:31:55;10.90;;;8.40;;
77524;SDS011;66638;50.050;21.124;2023-08-24T05:34:42;13.50;;;10.40;;
77524;SDS011;66638;50.050;21.124;2023-08-24T05:37:29;12.30;;;10.70;;
77524;SDS011;66638;50.050;21.124;2023-08-24T05:40:16;11.90;;;9.20;;
77524;SDS011;66638;50.050;21.124;2023-08-24T05:43:04;11.10;;;9.30;;
77524;SDS011;66638;50.050;21.124;2023-08-24T05:45:51;12.80;;;10.10;;
77524;SDS011;66638;50.050;21.124;2023-08-24T05:48:39;12.70;;;11.20;;
77524;SDS011;66638;50.050;21.124;2023-08-24T05:51:26;12.20;;;10.60;;
77524;SDS011;66638;50.050;21.124;2023-08-24T05:54:14;12.80;;;10.90;;
77524;SDS011;66638;50.050;21.124;2023-08-24T05:57:05;20.90;;;18.60;;
77524;SDS011;66638;50.050;21.124;2023-08-24T05:59:53;14.30;;;10.90;;
77524;SDS011;66638;50.050;21.124;2023-08-24T06:02:40;11.60;;;10.50;;
77524;SDS011;66638;50.050;21.124;2023-08-24T06:05:27;14.60;;;11.10;;
77524;SDS011;66638;50.050;21.124;2023-08-24T06:08:14;11.70;;;10.10;;
77524;SDS011;66638;50.050;21.124;2023-08-24T06:11:02;13.70;;;10.70;;
77524;SDS011;66638;50.050;21.124;2023-08-24T06:13:49;15.80;;;10.60;;
77524;SDS011;66638;50.050;21.124;2023-08-24T06:16:38;14.40;;;11.00;;
77524;SDS011;66638;50.050;21.124;2023-08-24T06:19:26;15.90;;;11.50;;
77524;SDS011;66638;50.050;21.124;2023-08-24T06:22:13;18.50;;;12.60;;
77524;SDS011;66638;50.050;21.124;2023-08-24T06:25:01;22.90;;;15.20;;
77524;SDS011;66638;50.050;21.124;2023-08-24T06:27:48;22.60;;;14.70;;
77524;SDS011;66638;50.050;21.124;2023-08-24T06:30:39;28.00;;;17.90;;
77524;SDS011;66638;50.050;21.124;2023-08-24T06:33:27;33.20;;;19.60;;
77524;SDS011;66638;50.050;21.124;2023-08-24T06:36:16;36.40;;;23.50;;
77524;SDS011;66638;50.050;21.124;2023-08-24T06:39:04;43.20;;;28.50;;
77524;SDS011;66638;50.050;21.124;2023-08-24T06:41:51;51.90;;;33.60;;
77524;SDS011;66638;50.050;21.124;2023-08-24T06:44:44;55.40;;;37.00;;
77524;SDS011;66638;50.050;21.124;2023-08-24T06:47:32;61.60;;;40.50;;
77524;SDS011;66638;50.050;21.124;2023-08-24T06:50:19;48.60;;;34.30;;
77524;SDS011;66638;50.050;21.124;2023-08-24T06:53:06;44.70;;;31.80;;
77524;SDS011;66638;50.050;21.124;2023-08-24T06:55:55;31.50;;;24.60;;
77524;SDS011;66638;50.050;21.124;2023-08-24T06:58:42;36.80;;;29.10;;
77524;SDS011;66638;50.050;21.124;2023-08-24T07:01:30;30.00;;;22.70;;
77524;SDS011;66638;50.050;21.124;2023-08-24T07:04:18;33.90;;;29.60;;
77524;SDS011;66638;50.050;21.124;2023-08-24T07:07:06;35.70;;;29.40;;
77524;SDS011;66638;50.050;21.124;2023-08-24T07:09:54;31.60;;;25.10;;
77524;SDS011;66638;50.050;21.124;2023-08-24T07:12:41;25.70;;;21.30;;
77524;SDS011;66638;50.050;21.124;2023-08-24T07:15:28;30.20;;;21.80;;
77524;SDS011;66638;50.050;21.124;2023-08-24T07:18:16;25.00;;;19.60;;
77524;SDS011;66638;50.050;21.124;2023-08-24T07:21:03;22.50;;;18.50;;
77524;SDS011;66638;50.050;21.124;2023-08-24T07:23:50;24.50;;;19.10;;
77524;SDS011;66638;50.050;21.124;2023-08-24T07:26:39;22.40;;;17.90;;
77524;SDS011;66638;50.050;21.124;2023-08-24T07:29:28;25.60;;;19.00;;
77524;SDS011;66638;50.050;21.124;2023-08-24T07:32:15;20.70;;;15.90;;
77524;SDS011;66638;50.050;21.124;2023-08-24T07:35:02;19.30;;;13.00;;
77524;SDS011;66638;50.050;21.124;2023-08-24T07:37:52;15.10;;;12.40;;
77524;SDS011;66638;50.050;21.124;2023-08-24T07:40:42;15.40;;;12.90;;
77524;SDS011;66638;50.050;21.124;2023-08-24T07:43:30;16.50;;;12.60;;
77524;SDS011;66638;50.050;21.124;2023-08-24T07:46:17;15.10;;;11.50;;
77524;SDS011;66638;50.050;21.124;2023-08-24T07:49:04;18.20;;;12.40;;
77524;SDS011;66638;50.050;21.124;2023-08-24T07:51:52;16.70;;;12.10;;
77524;SDS011;66638;50.050;21.124;2023-08-24T07:54:39;12.90;;;11.50;;
77524;SDS011;66638;50.050;21.124;2023-08-24T07:57:27;13.10;;;11.80;;
77524;SDS011;66638;50.050;21.124;2023-08-24T08:00:14;12.90;;;11.10;;
77524;SDS011;66638;50.050;21.124;2023-08-24T08:03:02;12.20;;;10.80;;
77524;SDS011;66638;50.050;21.124;2023-08-24T08:05:49;13.90;;;11.70;;
77524;SDS011;66638;50.050;21.124;2023-08-24T08:08:37;12.00;;;10.90;;
77524;SDS011;66638;50.050;21.124;2023-08-24T08:11:24;15.70;;;11.50;;
77524;SDS011;66638;50.050;21.124;2023-08-24T08:14:12;12.80;;;11.30;;
77524;SDS011;66638;50.050;21.124;2023-08-24T08:16:58;11.60;;;10.30;;
77524;SDS011;66638;50.050;21.124;2023-08-24T08:19:45;16.40;;;10.90;;
77524;SDS011;66638;50.050;21.124;2023-08-24T08:22:33;10.90;;;9.80;;
77524;SDS011;66638;50.050;21.124;2023-08-24T08:25:25;11.20;;;8.20;;
77524;SDS011;66638;50.050;21.124;2023-08-24T08:28:12;11.00;;;8.60;;
77524;SDS011;66638;50.050;21.124;2023-08-24T08:31:00;8.70;;;7.80;;
77524;SDS011;66638;50.050;21.124;2023-08-24T08:33:47;8.80;;;7.60;;
77524;SDS011;66638;50.050;21.124;2023-08-24T08:36:34;7.30;;;6.60;;
77524;SDS011;66638;50.050;21.124;2023-08-24T08:39:22;7.90;;;7.10;;
77524;SDS011;66638;50.050;21.124;2023-08-24T08:42:16;7.50;;;6.80;;
77524;SDS011;66638;50.050;21.124;2023-08-24T08:45:04;9.10;;;7.20;;
77524;SDS011;66638;50.050;21.124;2023-08-24T08:47:57;7.90;;;7.10;;
77524;SDS011;66638;50.050;21.124;2023-08-24T08:50:47;8.00;;;6.90;;
77524;SDS011;66638;50.050;21.124;2023-08-24T08:53:35;8.20;;;6.30;;
77524;SDS011;66638;50.050;21.124;2023-08-24T08:56:22;6.00;;;5.50;;
77524;SDS011;66638;50.050;21.124;2023-08-24T08:59:10;6.60;;;5.10;;
77524;SDS011;66638;50.050;21.124;2023-08-24T09:02:02;6.20;;;5.30;;
77524;SDS011;66638;50.050;21.124;2023-08-24T09:04:50;6.90;;;5.20;;
77524;SDS011;66638;50.050;21.124;2023-08-24T09:07:39;8.40;;;5.60;;
77524;SDS011;66638;50.050;21.124;2023-08-24T09:10:26;9.20;;;5.70;;
77524;SDS011;66638;50.050;21.124;2023-08-24T09:13:13;7.40;;;5.00;;
77524;SDS011;66638;50.050;21.124;2023-08-24T09:16:05;7.20;;;4.80;;
77524;SDS011;66638;50.050;21.124;2023-08-24T09:18:52;7.10;;;4.50;;
77524;SDS011;66638;50.050;21.124;2023-08-24T09:21:40;5.40;;;4.10;;
77524;SDS011;66638;50.050;21.124;2023-08-24T09:24:29;4.60;;;3.20;;
77524;SDS011;66638;50.050;21.124;2023-08-24T09:27:21;5.90;;;3.50;;
77524;SDS011;66638;50.050;21.124;2023-08-24T09:30:08;5.00;;;3.60;;
77524;SDS011;66638;50.050;21.124;2023-08-24T09:33:00;4.90;;;3.60;;
77524;SDS011;66638;50.050;21.124;2023-08-24T09:35:52;6.50;;;4.10;;
77524;SDS011;66638;50.050;21.124;2023-08-24T09:38:45;6.00;;;3.70;;
77524;SDS011;66638;50.050;21.124;2023-08-24T09:41:40;7.50;;;4.00;;
77524;SDS011;66638;50.050;21.124;2023-08-24T09:44:28;6.10;;;3.60;;
77524;SDS011;66638;50.050;21.124;2023-08-24T09:47:15;7.30;;;3.40;;
77524;SDS011;66638;50.050;21.124;2023-08-24T09:50:03;4.00;;;3.50;;
77524;SDS011;66638;50.050;21.124;2023-08-24T09:52:52;6.10;;;3.90;;
77524;SDS011;66638;50.050;21.124;2023-08-24T09:55:40;6.20;;;3.70;;
77524;SDS011;66638;50.050;21.124;2023-08-24T09:58:29;6.10;;;3.30;;
77524;SDS011;66638;50.050;21.124;2023-08-24T10:01:17;6.10;;;3.50;;
77524;SDS011;66638;50.050;21.124;2023-08-24T10:04:05;5.00;;;4.00;;
77524;SDS011;66638;50.050;21.124;2023-08-24T10:10:07;5.90;;;3.60;;
77524;SDS011;66638;50.050;21.124;2023-08-24T10:12:57;9.20;;;4.10;;
77524;SDS011;66638;50.050;21.124;2023-08-24T10:15:47;6.30;;;3.30;;
77524;SDS011;66638;50.050;21.124;2023-08-24T10:18:36;6.70;;;3.50;;
77524;SDS011;66638;50.050;21.124;2023-08-24T10:21:23;6.30;;;3.40;;
77524;SDS011;66638;50.050;21.124;2023-08-24T10:24:12;5.70;;;3.30;;
77524;SDS011;66638;50.050;21.124;2023-08-24T10:27:00;4.40;;;3.00;;
77524;SDS011;66638;50.050;21.124;2023-08-24T10:29:48;5.10;;;3.60;;
77524;SDS011;66638;50.050;21.124;2023-08-24T10:32:36;4.20;;;3.20;;
77524;SDS011;66638;50.050;21.124;2023-08-24T10:35:24;5.00;;;3.40;;
77524;SDS011;66638;50.050;21.124;2023-08-24T10:38:22;6.10;;;3.40;;
77524;SDS011;66638;50.050;21.124;2023-08-24T10:41:13;6.00;;;3.30;;
77524;SDS011;66638;50.050;21.124;2023-08-24T10:44:04;6.00;;;3.50;;
77524;SDS011;66638;50.050;21.124;2023-08-24T10:50:06;4.50;;;3.50;;
77524;SDS011;66638;50.050;21.124;2023-08-24T10:52:54;6.10;;;3.60;;
77524;SDS011;66638;50.050;21.124;2023-08-24T10:55:41;5.70;;;3.60;;
77524;SDS011;66638;50.050;21.124;2023-08-24T10:58:33;7.70;;;3.20;;
77524;SDS011;66638;50.050;21.124;2023-08-24T11:01:21;5.40;;;3.50;;
77524;SDS011;66638;50.050;21.124;2023-08-24T11:04:10;6.00;;;3.10;;
77524;SDS011;66638;50.050;21.124;2023-08-24T11:06:58;5.00;;;3.40;;
77524;SDS011;66638;50.050;21.124;2023-08-24T11:09:47;5.20;;;3.40;;
77524;SDS011;66638;50.050;21.124;2023-08-24T11:15:55;4.60;;;3.00;;
77524;SDS011;66638;50.050;21.124;2023-08-24T11:18:44;6.20;;;3.50;;
77524;SDS011;66638;50.050;21.124;2023-08-24T11:21:33;4.10;;;3.10;;
77524;SDS011;66638;50.050;21.124;2023-08-24T11:24:21;6.00;;;3.90;;
77524;SDS011;66638;50.050;21.124;2023-08-24T11:27:08;4.40;;;2.80;;
77524;SDS011;66638;50.050;21.124;2023-08-24T11:29:59;4.30;;;3.40;;
77524;SDS011;66638;50.050;21.124;2023-08-24T11:32:51;6.90;;;3.30;;
77524;SDS011;66638;50.050;21.124;2023-08-24T11:35:41;6.20;;;3.10;;
77524;SDS011;66638;50.050;21.124;2023-08-24T11:38:37;5.50;;;3.10;;
77524;SDS011;66638;50.050;21.124;2023-08-24T11:41:28;8.20;;;3.30;;
77524;SDS011;66638;50.050;21.124;2023-08-24T11:44:15;5.40;;;2.90;;
77524;SDS011;66638;50.050;21.124;2023-08-24T11:47:03;4.70;;;3.30;;
77524;SDS011;66638;50.050;21.124;2023-08-24T11:49:50;6.00;;;3.20;;
77524;SDS011;66638;50.050;21.124;2023-08-24T11:52:40;4.60;;;3.40;;
77524;SDS011;66638;50.050;21.124;2023-08-24T11:58:15;6.70;;;3.30;;
77524;SDS011;66638;50.050;21.124;2023-08-24T12:01:03;5.70;;;3.20;;
77524;SDS011;66638;50.050;21.124;2023-08-24T12:03:51;6.10;;;3.10;;
77524;SDS011;66638;50.050;21.124;2023-08-24T12:06:39;5.00;;;3.20;;
77524;SDS011;66638;50.050;21.124;2023-08-24T12:09:28;5.10;;;3.60;;
77524;SDS011;66638;50.050;21.124;2023-08-24T12:12:17;4.70;;;3.40;;
77524;SDS011;66638;50.050;21.124;2023-08-24T12:15:05;5.70;;;3.50;;
77524;SDS011;66638;50.050;21.124;2023-08-24T12:17:53;4.90;;;3.10;;
77524;SDS011;66638;50.050;21.124;2023-08-24T12:20:41;8.50;;;3.30;;
77524;SDS011;66638;50.050;21.124;2023-08-24T12:23:28;5.50;;;3.30;;
77524;SDS011;66638;50.050;21.124;2023-08-24T12:26:19;4.10;;;2.60;;
77524;SDS011;66638;50.050;21.124;2023-08-24T12:29:08;5.20;;;3.00;;
77524;SDS011;66638;50.050;21.124;2023-08-24T12:31:56;4.70;;;3.20;;
77524;SDS011;66638;50.050;21.124;2023-08-24T12:34:45;3.50;;;2.60;;
77524;SDS011;66638;50.050;21.124;2023-08-24T12:37:33;4.80;;;3.00;;
77524;SDS011;66638;50.050;21.124;2023-08-24T12:40:21;4.40;;;2.60;;
77524;SDS011;66638;50.050;21.124;2023-08-24T12:43:09;4.90;;;3.20;;
77524;SDS011;66638;50.050;21.124;2023-08-24T12:45:56;4.50;;;2.80;;
77524;SDS011;66638;50.050;21.124;2023-08-24T12:48:44;4.20;;;2.70;;
77524;SDS011;66638;50.050;21.124;2023-08-24T12:51:31;4.10;;;3.00;;
77524;SDS011;66638;50.050;21.124;2023-08-24T12:54:18;3.70;;;2.50;;
77524;SDS011;66638;50.050;21.124;2023-08-24T12:57:06;4.70;;;2.60;;
77524;SDS011;66638;50.050;21.124;2023-08-24T12:59:56;4.10;;;2.70;;
77524;SDS011;66638;50.050;21.124;2023-08-24T13:02:50;6.50;;;3.00;;
77524;SDS011;66638;50.050;21.124;2023-08-24T13:05:37;4.00;;;2.80;;
77524;SDS011;66638;50.050;21.124;2023-08-24T13:08:25;5.20;;;2.70;;
77524;SDS011;66638;50.050;21.124;2023-08-24T13:11:12;3.90;;;2.80;;
77524;SDS011;66638;50.050;21.124;2023-08-24T13:13:59;4.10;;;2.80;;
77524;SDS011;66638;50.050;21.124;2023-08-24T13:16:46;4.00;;;2.70;;
77524;SDS011;66638;50.050;21.124;2023-08-24T13:19:36;4.00;;;2.50;;
77524;SDS011;66638;50.050;21.124;2023-08-24T13:22:24;4.10;;;2.80;;
77524;SDS011;66638;50.050;21.124;2023-08-24T13:25:11;4.30;;;2.40;;
77524;SDS011;66638;50.050;21.124;2023-08-24T13:27:58;4.30;;;2.80;;
77524;SDS011;66638;50.050;21.124;2023-08-24T13:30:45;3.70;;;2.70;;
77524;SDS011;66638;50.050;21.124;2023-08-24T13:33:35;5.10;;;2.90;;
77524;SDS011;66638;50.050;21.124;2023-08-24T13:36:22;4.80;;;2.70;;
77524;SDS011;66638;50.050;21.124;2023-08-24T13:39:09;5.10;;;2.70;;
77524;SDS011;66638;50.050;21.124;2023-08-24T13:41:58;5.10;;;2.80;;
77524;SDS011;66638;50.050;21.124;2023-08-24T13:44:46;4.90;;;2.70;;
77524;SDS011;66638;50.050;21.124;2023-08-24T13:47:34;5.10;;;2.80;;
77524;SDS011;66638;50.050;21.124;2023-08-24T13:50:21;5.40;;;2.90;;
77524;SDS011;66638;50.050;21.124;2023-08-24T13:53:09;4.90;;;2.70;;
77524;SDS011;66638;50.050;21.124;2023-08-24T13:55:56;6.10;;;2.90;;
77524;SDS011;66638;50.050;21.124;2023-08-24T13:58:43;3.60;;;2.70;;
77524;SDS011;66638;50.050;21.124;2023-08-24T14:01:31;4.40;;;2.80;;
77524;SDS011;66638;50.050;21.124;2023-08-24T14:04:18;6.10;;;3.30;;
77524;SDS011;66638;50.050;21.124;2023-08-24T14:07:05;7.50;;;3.00;;
77524;SDS011;66638;50.050;21.124;2023-08-24T14:09:52;4.20;;;2.90;;
77524;SDS011;66638;50.050;21.124;2023-08-24T14:12:39;5.20;;;2.90;;
77524;SDS011;66638;50.050;21.124;2023-08-24T14:15:26;6.10;;;3.00;;
77524;SDS011;66638;50.050;21.124;2023-08-24T14:18:14;4.70;;;2.80;;
77524;SDS011;66638;50.050;21.124;2023-08-24T14:21:01;4.40;;;2.90;;
77524;SDS011;66638;50.050;21.124;2023-08-24T14:23:49;5.20;;;3.00;;
77524;SDS011;66638;50.050;21.124;2023-08-24T14:26:36;4.80;;;2.90;;
77524;SDS011;66638;50.050;21.124;2023-08-24T14:29:26;4.50;;;3.00;;
77524;SDS011;66638;50.050;21.124;2023-08-24T14:32:13;4.20;;;2.40;;
77524;SDS011;66638;50.050;21.124;2023-08-24T14:35:00;5.30;;;2.80;;
77524;SDS011;66638;50.050;21.124;2023-08-24T14:37:50;4.70;;;2.80;;
77524;SDS011;66638;50.050;21.124;2023-08-24T14:40:37;5.00;;;2.80;;
77524;SDS011;66638;50.050;21.124;2023-08-24T14:43:25;5.80;;;2.90;;
77524;SDS011;66638;50.050;21.124;2023-08-24T14:46:12;5.20;;;2.80;;
77524;SDS011;66638;50.050;21.124;2023-08-24T14:49:00;5.10;;;3.00;;
77524;SDS011;66638;50.050;21.124;2023-08-24T14:51:47;5.50;;;2.90;;
77524;SDS011;66638;50.050;21.124;2023-08-24T14:54:34;5.20;;;2.60;;
77524;SDS011;66638;50.050;21.124;2023-08-24T14:57:22;4.80;;;2.80;;
77524;SDS011;66638;50.050;21.124;2023-08-24T15:00:09;5.50;;;2.80;;
77524;SDS011;66638;50.050;21.124;2023-08-24T15:02:57;3.60;;;2.90;;
77524;SDS011;66638;50.050;21.124;2023-08-24T15:05:45;4.00;;;2.50;;
77524;SDS011;66638;50.050;21.124;2023-08-24T15:08:33;4.10;;;2.70;;
77524;SDS011;66638;50.050;21.124;2023-08-24T15:11:21;3.80;;;2.70;;
77524;SDS011;66638;50.050;21.124;2023-08-24T15:14:08;3.90;;;2.70;;
77524;SDS011;66638;50.050;21.124;2023-08-24T15:16:55;8.00;;;3.20;;
77524;SDS011;66638;50.050;21.124;2023-08-24T15:19:42;3.60;;;2.90;;
77524;SDS011;66638;50.050;21.124;2023-08-24T15:22:30;4.90;;;3.20;;
77524;SDS011;66638;50.050;21.124;2023-08-24T15:25:17;4.10;;;2.60;;
77524;SDS011;66638;50.050;21.124;2023-08-24T15:28:05;5.90;;;3.30;;
77524;SDS011;66638;50.050;21.124;2023-08-24T15:30:52;6.90;;;2.80;;
77524;SDS011;66638;50.050;21.124;2023-08-24T15:33:39;5.00;;;3.10;;
77524;SDS011;66638;50.050;21.124;2023-08-24T15:36:26;3.90;;;2.90;;
77524;SDS011;66638;50.050;21.124;2023-08-24T15:39:13;6.30;;;2.80;;
77524;SDS011;66638;50.050;21.124;2023-08-24T15:42:00;4.50;;;3.00;;
77524;SDS011;66638;50.050;21.124;2023-08-24T15:44:47;4.50;;;3.00;;
77524;SDS011;66638;50.050;21.124;2023-08-24T15:47:35;5.40;;;3.00;;
77524;SDS011;66638;50.050;21.124;2023-08-24T15:50:22;5.00;;;3.20;;
77524;SDS011;66638;50.050;21.124;2023-08-24T15:53:09;4.70;;;3.40;;
77524;SDS011;66638;50.050;21.124;2023-08-24T15:55:57;6.10;;;3.10;;
77524;SDS011;66638;50.050;21.124;2023-08-24T15:58:44;4.40;;;3.00;;
77524;SDS011;66638;50.050;21.124;2023-08-24T16:01:32;4.70;;;2.80;;
77524;SDS011;66638;50.050;21.124;2023-08-24T16:04:20;3.80;;;2.60;;
77524;SDS011;66638;50.050;21.124;2023-08-24T16:07:07;5.90;;;3.30;;
77524;SDS011;66638;50.050;21.124;2023-08-24T16:09:55;3.80;;;2.80;;
77524;SDS011;66638;50.050;21.124;2023-08-24T16:12:42;4.50;;;3.00;;
77524;SDS011;66638;50.050;21.124;2023-08-24T16:15:29;4.30;;;2.60;;
77524;SDS011;66638;50.050;21.124;2023-08-24T16:18:23;5.00;;;3.00;;
77524;SDS011;66638;50.050;21.124;2023-08-24T16:21:11;4.40;;;3.00;;
77524;SDS011;66638;50.050;21.124;2023-08-24T16:23:58;4.30;;;2.90;;
77524;SDS011;66638;50.050;21.124;2023-08-24T16:26:45;3.80;;;2.50;;
77524;SDS011;66638;50.050;21.124;2023-08-24T16:29:33;4.70;;;2.60;;
77524;SDS011;66638;50.050;21.124;2023-08-24T16:32:20;5.50;;;3.10;;
77524;SDS011;66638;50.050;21.124;2023-08-24T16:35:07;6.60;;;3.00;;
77524;SDS011;66638;50.050;21.124;2023-08-24T16:37:55;5.00;;;3.30;;
77524;SDS011;66638;50.050;21.124;2023-08-24T16:40:42;5.10;;;2.90;;
77524;SDS011;66638;50.050;21.124;2023-08-24T16:43:30;5.00;;;3.00;;
77524;SDS011;66638;50.050;21.124;2023-08-24T16:46:17;4.70;;;3.30;;
77524;SDS011;66638;50.050;21.124;2023-08-24T16:49:04;4.90;;;3.10;;
77524;SDS011;66638;50.050;21.124;2023-08-24T16:51:52;4.80;;;3.00;;
77524;SDS011;66638;50.050;21.124;2023-08-24T16:54:39;5.90;;;2.90;;